Weather observations for the past three days for
Rutherfordton, Rutherford County-Marchman Field Airport
Metric (Imperial)
Date Time (edt) Wind (kph) Vis. (km) Weather Sky Cond. Temperature (ºC) Relative Humidity Wind Chill (°C) Heat Index (°C) Pressure Precipitation (cm)
Air Dwpt 6 hour altimeter (cm) sea level (mb) 1 hr 3 hr 6 hr
Max. Min.
04 08:15 Calm 16.09 Fair CLR 9 5 76% 76.35 0.0
04 07:55 NW 6 16.09 Fair CLR 7 4 81% 76.35 0.0
04 07:35 Calm 16.09 Fair CLR 5 3 87% 76.35 0.0
04 07:15 Calm 16.09 Fair CLR 5 3 87% 76.35 0.0
04 06:55 Calm 16.09 Fair CLR 4 4 100% 76.33 0.0
04 06:35 Calm 16.09 Fair CLR 3 3 100% 76.33 0.0
04 06:15 Calm 16.09 Fair CLR 3 3 100% 76.33 0.0
04 05:55 Calm 16.09 Fair CLR 3 3 100% 76.3 0.0
04 05:15 Calm 16.09 Fair CLR 3 3 100% 76.33 0.0
04 04:55 NW 6 16.09 Fair CLR 3 3 100% 76.35 0.0
04 04:35 NW 6 16.09 Fair CLR 4 3 93% 76.33 0.0
04 04:15 Calm 16.09 Fair CLR 4 4 100% 76.3 0.0
04 03:55 NW 6 16.09 Fair CLR 5 4 93% 76.28 0.0
04 03:35 NW 6 16.09 Fair CLR 5 5 100% 76.3 0.0
04 03:15 Calm 16.09 Fair CLR 5 5 100% 76.3 0.0
04 02:55 Calm 16.09 Fair CLR 5 5 100% 76.3 0.0
04 02:35 Calm 16.09 Fair CLR 6 4 87% 76.3 0.0
04 02:15 Calm 16.09 Fair CLR 6 5 93% 76.3 0.0
04 01:55 Calm 16.09 Fair CLR 6 5 93% 76.33 0.0
04 01:35 Calm 16.09 Fair CLR 7 5 87% 76.33 0.0
04 01:15 Calm 16.09 Fair CLR 8 4 76% 76.33 0.0
04 00:55 NW 6 16.09 Fair CLR 7 4 81% 76.33 0.0
04 00:35 Calm 16.09 Fair CLR 8 4 76% 76.3 0.0
04 00:15 Calm 16.09 Fair CLR 9 4 71% 76.3 0.0
03 23:55 Calm 16.09 Fair CLR 11 3 58% 76.33 0.0
03 23:35 Calm 16.09 Fair CLR 10 4 67% 76.3 0.0
03 23:15 Calm 16.09 Fair CLR 10 4 67% 76.33 0.0
03 22:55 Calm 16.09 Fair CLR 11 3 58% 76.33 0.0
03 22:35 Calm 16.09 Fair CLR 11 3 58% 76.33 0.0
03 22:15 Calm 16.09 Fair CLR 14 3 48% 76.33 0.0
03 21:55 Calm 16.09 Fair CLR 14 3 48% 76.28 0.0
03 21:35 S 6 16.09 Fair CLR 15 3 45% 76.25 0.0
03 21:15 Calm 16.09 Fair CLR 15 3 45% 76.25 0.0
03 20:55 SW 6 16.09 Fair CLR 15 3 45% 76.23 0.0
03 20:35 S 7 16.09 Fair CLR 16 2 39% 76.23 0.0
03 20:15 S 7 16.09 Fair CLR 16 2 39% 76.23 0.0
03 19:55 S 6 16.09 Fair CLR 17 2 37% 76.2 0.0
03 19:35 S 7 16.09 Fair CLR 18 2 34% 76.2 0.0
03 19:15 S 9 16.09 Fair CLR 18 2 34% 76.2 0.0
03 18:55 S 11 16.09 Fair CLR 19 2 32% 76.2 0.0
03 18:35 S 15 16.09 Fair CLR 19 2 32% 76.2 0.0
03 18:15 S 11 16.09 Fair CLR 19 2 32% 76.2 0.0
03 17:55 SW 6 16.09 Fair CLR 20 2 30% 76.2 0.0
03 17:35 S 15 16.09 Fair CLR 20 1 28% 76.23 0.0
03 17:15 S 15 G 26 16.09 Fair CLR 20 1 28% 76.25 0.0
03 16:55 SW 7 16.09 Fair CLR 20 0 26% 76.25 0.0
03 16:35 S 17 16.09 Fair CLR 20 0 26% 76.28 0.0
03 16:15 SW 9 16.09 Fair CLR 20 -1 24% 76.28 0.0
03 15:55 Calm 16.09 Fair CLR 21 -3 20% 76.3 0.0
03 15:35 S 11 16.09 Fair CLR 20 -4 20% 76.33 0.0
03 15:15 SW 6 16.09 Fair CLR 19 -3 22% 76.38 0.0
03 14:35 Calm 16.09 Fair CLR 18 -1 28% 76.4 0.0
03 14:15 SW 11 16.09 Fair CLR 18 -1 28% 76.43 0.0
03 13:55 Calm 16.09 Fair CLR 17 -2 27% 76.43 0.0
03 13:35 W 17 16.09 Fair CLR 17 -2 27% 76.45 0.0
03 13:15 W 9 16.09 Fair CLR 17 -2 27% 76.48 0.0
03 12:55 W 7 16.09 Fair CLR 16 -1 31% 76.5 0.0
03 12:35 Calm 16.09 Fair CLR 16 0 34% 76.53 0.0
03 12:15 W 7 16.09 Fair CLR 16 0 34% 76.56 0.0
03 11:55 NW 11 16.09 Fair CLR 16 0 34% 76.56 0.0
03 11:35 Calm 16.09 Fair CLR 15 0 36% 76.58 0.0
03 11:15 Calm 16.09 Fair CLR 15 0 36% 76.58 0.0
03 10:55 NW 9 16.09 Fair CLR 14 0 39% 76.58 0.0
03 10:35 Calm 16.09 Fair CLR 13 0 41% 76.58 0.0
03 10:15 NW 6 16.09 Fair CLR 13 1 44% 76.58 0.0
03 09:55 N 9 16.09 Fair CLR 13 1 44% 76.58 0.0
03 09:35 N 9 16.09 Fair CLR 12 0 44% 76.58 0.0
03 09:15 Calm 16.09 Fair CLR 11 1 50% 76.58 0.0
03 08:35 NW 6 16.09 Fair CLR 10 1 54% 76.58 0.0
03 08:15 Calm 16.09 Fair CLR 8 2 66% 76.56 0.0
03 07:55 Calm 16.09 Fair CLR 6 2 76% 76.56 0.0
03 07:35 Calm 16.09 Fair CLR 3 1 87% 76.56 0.0
03 07:15 Calm 16.09 Fair CLR 2 1 93% 76.5 0.0
03 06:55 W 6 16.09 Fair CLR 1 1 100% 76.5 0.0
03 06:35 Calm 16.09 Fair CLR 2 1 93% 76.48 0.0
03 06:15 Calm 16.09 Fair CLR 1 1 100% 76.45 0.0
03 05:55 NW 6 16.09 Fair CLR 2 1 93% 76.43 0.0
03 05:35 Calm 16.09 Fair CLR 1 0 93% 76.43 0.0
03 05:15 NW 6 16.09 Fair CLR 2 2 100% 76.4 0.0
03 04:55 Calm 16.09 Fair CLR 3 1 87% 76.4 0.0
03 04:35 Calm 16.09 Fair CLR 3 2 93% 76.38 0.0
03 04:15 NW 6 16.09 Fair CLR 2 1 93% 76.38 0.0
03 03:55 Calm 16.09 Fair CLR 5 1 76% 76.35 0.0
03 03:35 Calm 16.09 Fair CLR 3 2 93% 76.35 0.0
03 03:15 NW 7 16.09 Fair CLR 4 1 81% 2 76.33 0.0
03 02:55 W 6 16.09 Fair CLR 5 1 76% 76.3 0.0
03 02:35 Calm 16.09 Fair CLR 5 1 76% 76.3 0.0
03 02:15 Calm 16.09 Fair CLR 5 2 81% 76.3 0.0
03 01:55 Calm 16.09 Fair CLR 3 2 93% 76.3 0.0
03 01:35 NW 6 16.09 Fair CLR 5 2 81% 76.3 0.0
03 01:15 Calm 16.09 Fair CLR 6 1 71% 76.3 0.0
03 00:55 NW 7 16.09 Fair CLR 6 1 71% 5 76.3 0.0
03 00:15 Calm 16.09 Fair CLR 6 1 71% 76.25 0.0
02 23:55 Calm 16.09 Fair CLR 9 0 54% 76.25 0.0
02 23:35 Calm 16.09 Fair CLR 10 0 50% 76.23 0.0
02 23:15 Calm 16.09 Fair CLR 10 0 50% 76.23 0.0
02 22:55 N 6 16.09 Fair CLR 11 0 47% 76.23 0.0
02 22:35 Calm 16.09 Fair CLR 10 0 50% 76.2 0.0
02 22:15 N 6 16.09 Fair CLR 11 0 47% 76.2 0.0
02 21:55 NE 7 16.09 Fair CLR 12 0 44% 76.17 0.0
02 21:35 NE 9 16.09 Fair CLR 12 0 44% 76.15 0.0
02 21:15 N 9 16.09 Fair CLR 12 -1 41% 76.12 0.0
02 20:55 N 9 16.09 Partly Cloudy SCT100 13 -1 38% 76.1 0.0
02 20:35 N 13 16.09 Mostly Cloudy BKN100 14 -1 36% 76.07 0.0
02 20:15 N 15 16.09 Overcast OVC100 15 -1 34% 76.05 0.0
02 19:35 N 9 16.09 Overcast SCT080 OVC090 16 0 34% 76 0.0
02 19:15 N 7 16.09 Overcast BKN080 OVC090 16 0 34% 75.97 0.0
02 18:55 N 9 16.09 Overcast BKN080 OVC090 16 0 34% 75.95 0.0
02 18:35 N 9 16.09 Overcast OVC090 16 -1 31% 75.95 0.0
02 18:15 N 9 16.09 Overcast BKN080 OVC090 16 -1 31% 75.95 0.0
02 17:55 N 9 16.09 Overcast SCT060 SCT070 OVC090 17 0 32% 75.92 0.0
02 17:35 Calm 16.09 Mostly Cloudy SCT070 BKN080 18 2 34% 75.9 0.0
02 17:15 Calm 16.09 Mostly Cloudy BKN090 17 2 37% 75.87 0.0
02 16:35 SW 7 16.09 Partly Cloudy SCT090 17 5 45% 75.9 0.0
02 16:15 W 6 16.09 Mostly Cloudy BKN090 16 4 45% 75.92 0.0
02 15:55 W 7 16.09 Partly Cloudy SCT090 17 3 39% 75.92 0.0
02 15:35 W 11 16.09 Fair CLR 17 3 39% 75.92 0.0
02 15:15 W 9 16.09 Fair CLR 17 3 39% 75.95 0.0
02 14:35 Calm 16.09 Mostly Cloudy BKN070 17 2 37% 75.97 0.0
02 14:15 W 7 16.09 Mostly Cloudy BKN060 17 3 39% 76 0.0
02 13:55 Calm 16.09 Overcast BKN039 OVC060 16 5 48% 76.02 0.0
02 13:35 N 6 16.09 Overcast OVC039 15 5 51% 76.02 0.0
02 13:15 N 9 16.09 Overcast OVC039 16 5 48% 76.02 0.0
02 12:55 Calm 16.09 Overcast BKN037 BKN046 OVC085 15 6 55% 76.05 0.0
02 12:35 E 9 16.09 Overcast BKN039 OVC048 14 6 59% 76.07 0.0
02 12:15 NE 6 16.09 Overcast OVC039 13 5 59% 76.1 0.0
02 11:55 Calm 16.09 Overcast OVC039 13 5 59% 76.1 0.0
02 11:35 NE 6 16.09 Overcast OVC039 13 5 59% 76.1 0.0
02 11:15 NE 7 16.09 Overcast OVC041 13 5 59% 76.1 0.0
02 10:55 NE 6 16.09 Overcast OVC045 13 6 63% 76.1 0.0
02 10:35 NE 7 16.09 Overcast OVC047 13 5 59% 76.1 0.0
02 10:15 N 7 16.09 Overcast BKN047 OVC060 13 5 59% 76.1 0.0
02 09:55 N 6 16.09 Overcast SCT047 OVC060 13 5 59% 76.07 0.0
02 09:35 N 7 16.09 Overcast OVC060 13 5 59% 76.07 0.0
02 08:55 N 7 16.09 Overcast SCT049 OVC060 13 6 63% 76.07 0.0
02 08:35 N 6 16.09 Overcast SCT049 BKN060 OVC075 12 5 63% 76.05 0.0
02 08:15 N 9 16.09 Overcast OVC060 12 6 67% 76.05 0.0
02 07:55 N 6 16.09 Overcast OVC060 13 6 63% 76.05 0.0
02 07:35 N 11 16.09 Overcast OVC060 13 6 63% 75.97 0.0
02 07:15 N 6 16.09 Overcast OVC060 12 7 72% 76.02 0.0
02 06:55 N 9 16.09 Overcast OVC070 12 7 72% 76 0.0
02 06:35 NE 6 16.09 Overcast OVC070 12 7 72% 75.97 0.0
02 06:15 NE 6 16.09 Overcast OVC070 13 7 67% 75.97 0.0
02 05:55 N 7 16.09 Overcast OVC070 13 7 67% 75.97 0.0
02 05:35 NE 9 16.09 Mostly Cloudy BKN070 BKN110 13 7 67% 75.97 0.0
02 05:15 NE 9 16.09 Mostly Cloudy BKN070 BKN100 BKN120 13 8 72% 75.97 0.0
02 04:55 Calm 16.09 Overcast OVC070 12 10 88% 76 0.0
02 04:35 Calm 16.09 Mostly Cloudy SCT070 SCT080 BKN110 12 10 88% 76 0.0
02 04:15 Calm 16.09 Mostly Cloudy BKN110 12 10 88% 76 0.0
02 03:55 Calm 16.09 Overcast OVC110 12 10 88% 75.97 0.0
02 03:35 Calm 16.09 Partly Cloudy SCT120 12 10 88% 75.97 0.0
02 03:15 Calm 16.09 Fair CLR 12 10 88% 75.95 0.0
02 02:55 Calm 16.09 Partly Cloudy SCT070 SCT120 12 10 88% 75.95 0.0
02 02:35 N 6 16.09 Mostly Cloudy BKN070 12 10 88% 75.97 0.0
02 02:15 Calm 16.09 Mostly Cloudy BKN070 BKN120 13 10 82% 75.97 0.0
02 01:55 Calm 16.09 Partly Cloudy SCT070 SCT120 13 10 82% 75.97 0.0
02 01:35 Calm 16.09 Fair CLR 13 10 82% 76 0.0
02 01:15 Calm 16.09 Fair CLR 13 10 82% 76 0.0
02 00:55 Calm 16.09 Fair CLR 13 10 82% 76 0.0
02 00:35 Calm 16.09 Fair CLR 13 9 77% 76 0.0
02 00:15 Calm 16.09 Fair CLR 14 9 72% 76 0.0
01 23:55 Calm 16.09 Fair CLR 13 9 77% 76 0.0
01 23:35 E 6 16.09 Fair CLR 14 9 72% 76.02 0.0
01 23:15 Calm 16.09 Fair CLR 14 9 72% 76.02 0.0
01 22:55 E 6 16.09 Fair CLR 14 9 72% 76.05 0.0
01 22:35 E 6 16.09 Fair CLR 15 9 68% 76.02 0.0
01 22:15 SE 6 16.09 Fair CLR 14 9 72% 76.05 0.0
01 21:55 SE 7 16.09 Fair CLR 15 8 63% 76.02 0.0
01 21:35 SE 7 16.09 Fair CLR 15 8 63% 76 0.0
01 21:15 E 6 16.09 Fair CLR 15 8 63% 76.02 0.0
01 20:55 SE 6 16.09 Fair CLR 16 8 59% 76 0.0
01 20:35 SE 6 16.09 Fair CLR 16 8 59% 75.97 0.0
01 20:15 S 7 16.09 Fair CLR 16 8 59% 75.95 0.0
01 19:55 Calm 16.09 Fair CLR 16 7 55% 75.92 0.0
01 19:35 S 6 16.09 Fair CLR 17 7 52% 75.92 0.0
01 19:15 S 9 16.09 Fair CLR 17 6 49% 75.87 0.0
01 18:55 S 7 16.09 Fair CLR 17 6 49% 75.92 0.0
01 18:35 S 11 16.09 Fair CLR 18 6 46% 75.92 0.0
01 18:15 S 7 16.09 Fair CLR 18 6 46% 75.92 0.0
01 17:55 S 13 16.09 Fair CLR 18 6 46% 75.92 0.0
01 17:35 S 6 16.09 Fair CLR 18 6 46% 75.92 0.0
01 17:15 S 9 16.09 Fair CLR 18 6 46% 75.95 0.0
01 16:55 Calm 16.09 Fair CLR 18 5 43% 75.97 0.0
01 16:35 S 6 16.09 Fair CLR 18 5 43% 75.97 0.0
01 16:15 S 13 16.09 Fair CLR 18 5 43% 76 0.0
01 15:55 SW 7 16.09 Fair CLR 18 5 43% 76 0.0
01 15:35 S 9 16.09 Fair CLR 18 5 43% 76.02 0.0
01 15:15 S 9 16.09 Fair CLR 18 5 43% 76.05 0.0
01 14:55 S 11 16.09 Fair CLR 18 5 43% 76.07 0.0
01 14:35 Calm 16.09 Partly Cloudy SCT046 18 4 40% 76.1 0.0
01 14:15 SE 6 16.09 Partly Cloudy SCT047 17 4 42% 76.1 0.0
01 13:55 Calm 16.09 Mostly Cloudy BKN049 17 3 39% 76.1 0.0
01 13:35 S 6 16.09 Partly Cloudy SCT049 17 3 39% 76.12 0.0
01 13:15 S 15 16.09 Partly Cloudy SCT050 18 3 37% 76.15 0.0
01 12:55 S 11 16.09 Mostly Cloudy BKN050 18 3 37% 76.17 0.0
01 12:35 Calm 16.09 Partly Cloudy SCT050 17 2 37% 76.17 0.0
01 12:15 Calm 16.09 Mostly Cloudy BKN050 17 2 37% 76.2 0.0
01 11:55 Calm 16.09 Mostly Cloudy BKN055 16 1 36% 76.23 0.0
01 11:35 SE 7 16.09 Fair CLR 16 1 36% 76.23 0.0
01 11:15 E 7 16.09 Fair CLR 16 1 36% 76.25 0.0
01 10:55 E 11 16.09 Fair CLR 15 1 39% 76.25 0.0
01 10:35 N 6 16.09 Fair CLR 15 1 39% 76.25 0.0
01 10:15 E 9 16.09 Fair CLR 15 1 39% 76.23 0.0
01 09:55 E 13 16.09 Fair CLR 14 0 39% 76.25 0.0
01 09:35 NE 11 16.09 Fair CLR 13 1 44% 76.25 0.0
01 09:15 E 9 16.09 Fair CLR 13 1 44% 76.25 0.0
01 08:55 E 11 16.09 Fair CLR 13 1 44% 76.25 0.0
Date Time (edt) Wind (kph) Vis. (km) Weather Sky Cond. Air Dwpt Max. Min. Relative Humidity Wind Chill (°C) Heat Index (°C) altimeter (cm) sea level (mb) 1 hr 3 hr 6 hr
6 hour
Temperature (ºC) Pressure Precipitation (cm)